Decoded Metar for KORE (ORANGE in MA, USA) (IATA:ORE) | Meteo·Mobile Aviation Weather
aviador You're here:

KORE Decoded Metar

ORANGE in MA, USA
Report Time2018-12-11 08:52:00
UTC Time2018-12-11 09:17:38
Flight Rules vfr VFR
WindCalm
Visibility9999 m
Phenomena:N/A
Clouds:N/A
Expected CloudBase > 1,200 ft AGL from Temp-Dew spread
CeilingNone
Temp-12°C (ISA -26)
Dew Point-15°C (79% RH)
AAT-15.4°C
QNH1022 hPa
Density Alt-2,995 ft
Elevation538 ft
Report Wrong Elevation
Raw Report
KORE 110852Z AUTO 00000KT 10SM CLR M12/M15 A3017 RMK AO2 SLP227
I1000 I3000 T11221150 50001=

Extra information for KORE:More info

Metar Taf Metar & Taf Last 4 Metars F.Rules Stats Wind Profile Meteogram Temp Stats Airport Information Weather charts Add Link Nearby VenuesMetar ALERT Operation Metar Decoded Social comments

AIRNAV info for KORE